Time;durP1;ratioP1;P1;durP2;ratioP2;P2;SDS_P1;SDS_P2;PMS_P1;PMS_P2;Temp;Humidity;BMP_temperature;BMP_pressure;BME280_temperature;BME280_humidity;BME280_pressure;Samples;Min_cycle;Max_cycle;Signal;HPM_P1;HPM_P2
2024/04/06 00:01:33;;;;;;;3.03;1.10;;;11.90;99.90;;;;;;5073550;28;20040;-74
2024/04/06 00:03:58;;;;;;;4.13;1.55;;;11.90;99.90;;;;;;5073158;28;20027;-74
2024/04/06 00:06:24;;;;;;;3.03;1.10;;;11.80;99.90;;;;;;5073777;28;20552;-74
2024/04/06 00:08:50;;;;;;;1.50;1.40;;;11.80;99.90;;;;;;5072437;28;20028;-74
2024/04/06 00:11:16;;;;;;;5.28;1.75;;;11.70;99.90;;;;;;5069863;28;20053;-74
2024/04/06 00:13:42;;;;;;;1.73;1.63;;;11.70;99.90;;;;;;5072719;28;20038;-76
2024/04/06 00:16:08;;;;;;;2.72;1.33;;;11.60;99.90;;;;;;5073305;28;20139;-74
2024/04/06 00:18:35;;;;;;;2.42;1.33;;;11.60;99.90;;;;;;5073459;28;20095;-74
2024/04/06 00:21:01;;;;;;;1.70;1.52;;;11.60;99.90;;;;;;5071917;28;20665;-73
2024/04/06 00:23:28;;;;;;;2.65;1.20;;;11.60;99.90;;;;;;5072640;28;20107;-74
2024/04/06 00:25:53;;;;;;;1.48;1.30;;;11.60;99.90;;;;;;5073350;28;20425;-73
2024/04/06 00:28:19;;;;;;;2.15;1.17;;;11.60;99.90;;;;;;5073236;28;20028;-74
2024/04/06 00:30:45;;;;;;;1.95;1.77;;;11.50;99.90;;;;;;5073062;28;20066;-73
2024/04/06 00:33:11;;;;;;;1.65;1.40;;;11.50;99.90;;;;;;5072485;28;20101;-74
2024/04/06 00:35:38;;;;;;;3.78;1.95;;;11.50;99.90;;;;;;5073111;28;20444;-74
2024/04/06 00:38:03;;;;;;;2.67;1.65;;;11.40;99.90;;;;;;5073046;28;20035;-74
2024/04/06 00:40:29;;;;;;;1.40;1.30;;;11.40;99.90;;;;;;5072799;28;20032;-73
2024/04/06 00:42:55;;;;;;;4.45;2.85;;;11.40;99.90;;;;;;5072274;28;20099;-74
2024/04/06 00:45:21;;;;;;;2.00;1.67;;;11.40;99.90;;;;;;5072863;28;20021;-74
2024/04/06 00:47:47;;;;;;;2.22;2.03;;;11.30;99.90;;;;;;5072885;28;20099;-74
2024/04/06 00:50:13;;;;;;;5.50;2.00;;;11.30;99.90;;;;;;5072732;28;20039;-74
2024/04/06 00:52:38;;;;;;;4.07;1.85;;;11.30;99.90;;;;;;5072881;28;20036;-73
2024/04/06 00:55:05;;;;;;;2.20;2.00;;;11.20;99.90;;;;;;5072402;28;20478;-73
2024/04/06 00:57:31;;;;;;;2.55;2.15;;;11.20;99.90;;;;;;5072697;28;20020;-72
2024/04/06 00:59:57;;;;;;;5.40;1.90;;;11.20;99.90;;;;;;5072772;28;20033;-73
2024/04/06 01:02:23;;;;;;;4.65;2.08;;;11.10;99.90;;;;;;5072755;28;20025;-73
2024/04/06 01:04:49;;;;;;;7.78;2.42;;;11.10;99.90;;;;;;5072048;28;20023;-74
2024/04/06 01:07:14;;;;;;;4.20;2.42;;;11.00;99.90;;;;;;5072409;28;20017;-73
2024/04/06 01:09:40;;;;;;;3.50;2.35;;;11.00;99.90;;;;;;5072165;28;20440;-74
2024/04/06 01:12:06;;;;;;;3.63;2.15;;;11.00;99.90;;;;;;5072195;28;20436;-73
2024/04/06 01:14:32;;;;;;;2.15;1.80;;;11.00;99.90;;;;;;5070407;28;20086;-74
2024/04/06 01:16:58;;;;;;;5.95;2.28;;;11.00;99.90;;;;;;5070996;28;20425;-74
2024/04/06 01:19:24;;;;;;;3.13;2.25;;;11.00;99.90;;;;;;5072257;28;20050;-73
2024/04/06 01:21:49;;;;;;;3.25;2.40;;;11.00;99.90;;;;;;5071921;28;20047;-74
2024/04/06 01:24:28;;;;;;;3.47;2.53;;;10.90;99.90;;;;;;5071639;28;20052;-74
2024/04/06 01:26:55;;;;;;;4.57;2.30;;;10.90;99.90;;;;;;5070610;28;20027;-73
2024/04/06 01:29:26;;;;;;;4.32;2.50;;;11.00;99.90;;;;;;5072160;28;20134;-74
2024/04/06 01:31:51;;;;;;;1.60;1.50;;;11.00;99.90;;;;;;5071932;28;20403;-74
2024/04/06 01:34:17;;;;;;;3.03;2.33;;;10.90;99.90;;;;;;5071408;28;20032;-74
2024/04/06 01:36:43;;;;;;;2.63;1.65;;;10.90;99.90;;;;;;5072061;28;20024;-74
2024/04/06 01:39:09;;;;;;;3.38;2.10;;;10.90;99.90;;;;;;5070546;28;20020;-73
2024/04/06 01:41:40;;;;;;;1.65;1.50;;;10.90;99.90;;;;;;5070256;28;20067;-74
2024/04/06 01:44:06;;;;;;;5.60;1.98;;;10.90;99.90;;;;;;5070069;28;20391;-74
2024/04/06 01:46:33;;;;;;;2.67;1.40;;;10.80;99.90;;;;;;5070583;28;20024;-74
2024/04/06 01:48:59;;;;;;;2.92;1.58;;;10.70;99.90;;;;;;5071498;28;20095;-74
2024/04/06 01:51:26;;;;;;;2.55;1.33;;;10.70;99.90;;;;;;5070395;28;20044;-74
2024/04/06 01:53:51;;;;;;;4.13;1.23;;;10.60;99.90;;;;;;5069525;28;20060;-74
2024/04/06 01:56:17;;;;;;;1.83;1.40;;;10.60;99.90;;;;;;5071785;28;20387;-74
2024/04/06 01:58:44;;;;;;;1.88;1.45;;;10.60;99.90;;;;;;5071771;28;20067;-74
2024/04/06 02:01:09;;;;;;;1.23;1.10;;;10.60;99.90;;;;;;5071490;28;20025;-74
2024/04/06 02:03:35;;;;;;;3.97;1.52;;;10.50;99.90;;;;;;5069699;28;20024;-74
2024/04/06 02:06:02;;;;;;;1.92;1.17;;;10.50;99.90;;;;;;5071704;28;20104;-74
2024/04/06 02:08:27;;;;;;;7.60;1.98;;;10.50;99.90;;;;;;5070215;28;20024;-74
2024/04/06 02:10:53;;;;;;;1.60;1.50;;;10.50;99.90;;;;;;5071356;28;20115;-74
2024/04/06 02:13:19;;;;;;;4.47;1.60;;;10.50;99.90;;;;;;5070940;28;20024;-74
2024/04/06 02:15:45;;;;;;;1.70;1.60;;;10.50;99.90;;;;;;5071534;28;20035;-74
2024/04/06 02:18:11;;;;;;;3.35;1.60;;;10.50;99.90;;;;;;5071539;28;20025;-74
2024/04/06 02:20:40;;;;;;;2.22;1.83;;;10.50;99.90;;;;;;5073446;28;20025;-74
2024/04/06 02:23:06;;;;;;;2.28;1.38;;;10.50;99.90;;;;;;5074920;28;20043;-74
2024/04/06 02:25:32;;;;;;;1.60;1.50;;;10.50;99.90;;;;;;5074321;28;20024;-74
2024/04/06 02:27:58;;;;;;;4.13;1.73;;;10.50;99.90;;;;;;5074256;28;20402;-74
2024/04/06 02:30:24;;;;;;;1.70;1.60;;;10.60;99.90;;;;;;5075476;28;20027;-74
2024/04/06 02:32:50;;;;;;;3.03;1.90;;;10.60;99.90;;;;;;5073580;28;20025;-74
2024/04/06 02:35:16;;;;;;;2.15;1.83;;;10.70;99.90;;;;;;5075470;28;20021;-74
2024/04/06 02:37:45;;;;;;;2.60;1.88;;;10.70;99.90;;;;;;5075063;28;20021;-74
2024/04/06 02:40:13;;;;;;;2.38;1.70;;;10.70;99.90;;;;;;5075143;28;20024;-74
2024/04/06 02:42:39;;;;;;;6.35;2.10;;;10.80;99.90;;;;;;5075176;28;20032;-74
2024/04/06 02:45:05;;;;;;;3.65;1.70;;;10.80;99.90;;;;;;5074571;28;20020;-74
2024/04/06 02:47:31;;;;;;;3.70;2.17;;;10.80;99.90;;;;;;5073817;28;20406;-74
2024/04/06 02:49:56;;;;;;;1.58;1.48;;;10.80;99.90;;;;;;5074948;28;20020;-74
2024/04/06 02:52:23;;;;;;;2.20;1.88;;;10.80;99.90;;;;;;5074921;28;20450;-74
2024/04/06 02:54:49;;;;;;;3.92;1.30;;;10.80;99.90;;;;;;5073154;28;20457;-74
2024/04/06 02:57:15;;;;;;;1.88;1.77;;;10.90;99.90;;;;;;5074948;28;20548;-74
2024/04/06 02:59:41;;;;;;;2.78;1.52;;;10.90;99.90;;;;;;5074778;28;20107;-74
2024/04/06 03:02:09;;;;;;;3.10;1.63;;;10.90;99.90;;;;;;5073349;28;20471;-74
2024/04/06 03:04:43;;;;;;;1.80;1.70;;;10.90;99.90;;;;;;5074145;28;20027;-74
2024/04/06 03:07:10;;;;;;;5.15;2.10;;;11.00;99.90;;;;;;5073704;28;20021;-74
2024/04/06 03:09:35;;;;;;;1.52;1.42;;;11.00;99.90;;;;;;5072483;28;20031;-73
2024/04/06 03:12:05;;;;;;;3.25;2.00;;;11.00;99.90;;;;;;5074492;28;20024;-73
2024/04/06 03:14:31;;;;;;;2.05;1.75;;;11.10;99.90;;;;;;5074012;28;20116;-75
2024/04/06 03:16:57;;;;;;;8.48;2.50;;;11.10;99.90;;;;;;5074719;28;20032;-75
2024/04/06 03:19:24;;;;;;;2.92;2.10;;;11.00;99.90;;;;;;5074492;28;20491;-75
2024/04/06 03:21:51;;;;;;;3.00;2.47;;;11.10;99.90;;;;;;5074291;28;20082;-75
2024/04/06 03:24:16;;;;;;;4.75;1.88;;;11.10;99.90;;;;;;5073605;28;20027;-74
2024/04/06 03:26:45;;;;;;;5.07;2.28;;;11.00;99.90;;;;;;5073115;28;20477;-74
2024/04/06 03:29:11;;;;;;;4.43;2.60;;;11.00;99.90;;;;;;5074475;28;20025;-75
2024/04/06 03:31:37;;;;;;;4.20;2.33;;;11.10;99.90;;;;;;5074122;28;20024;-74
2024/04/06 03:34:03;;;;;;;3.67;2.67;;;11.00;99.90;;;;;;5073641;28;20032;-75
2024/04/06 03:36:29;;;;;;;4.55;2.95;;;11.00;99.90;;;;;;5074322;28;20479;-75
2024/04/06 03:38:55;;;;;;;2.95;2.65;;;10.90;99.90;;;;;;5074263;28;20040;-75
2024/04/06 03:41:20;;;;;;;5.10;2.95;;;11.00;99.90;;;;;;5074045;28;20025;-75
2024/04/06 03:43:46;;;;;;;5.72;3.03;;;11.00;99.90;;;;;;5072276;28;20024;-74
2024/04/06 03:46:11;;;;;;;4.20;2.75;;;10.90;99.90;;;;;;5074099;28;20017;-75
2024/04/06 03:48:37;;;;;;;5.97;3.03;;;10.90;99.90;;;;;;5073948;28;20039;-75
2024/04/06 03:51:03;;;;;;;3.92;2.75;;;10.90;99.90;;;;;;5072738;28;20032;-75
2024/04/06 03:53:35;;;;;;;3.83;2.92;;;10.90;99.90;;;;;;5072010;28;20040;-75
2024/04/06 03:56:01;;;;;;;5.07;3.03;;;10.90;99.90;;;;;;5073914;28;20103;-74
2024/04/06 03:58:27;;;;;;;5.80;3.45;;;10.90;99.90;;;;;;5073736;28;20104;-74
2024/04/06 04:00:53;;;;;;;3.17;2.78;;;10.90;99.90;;;;;;5073579;28;20017;-75
2024/04/06 04:03:19;;;;;;;3.22;2.50;;;10.90;99.90;;;;;;5073122;28;20031;-74
2024/04/06 04:05:45;;;;;;;3.42;2.95;;;11.00;99.90;;;;;;5073723;28;20099;-74
2024/04/06 04:08:10;;;;;;;4.72;2.78;;;11.00;99.90;;;;;;5073650;28;20505;-74
2024/04/06 04:10:36;;;;;;;9.40;2.92;;;10.90;99.90;;;;;;5073535;28;20047;-75
2024/04/06 04:13:03;;;;;;;8.25;3.53;;;10.90;99.90;;;;;;5072936;28;20025;-75
2024/04/06 04:15:29;;;;;;;8.35;3.28;;;10.90;99.90;;;;;;5073438;28;20030;-74
2024/04/06 04:17:55;;;;;;;8.70;3.35;;;10.90;99.90;;;;;;5072235;28;20461;-75
2024/04/06 04:20:20;;;;;;;4.70;3.00;;;10.90;99.90;;;;;;5073334;28;20032;-75
2024/04/06 04:22:46;;;;;;;5.00;2.78;;;10.90;99.90;;;;;;5072738;28;20071;-74
2024/04/06 04:25:14;;;;;;;3.80;2.60;;;10.90;99.90;;;;;;5073311;28;20021;-75
2024/04/06 04:27:40;;;;;;;9.38;2.47;;;10.90;99.90;;;;;;5073306;28;20162;-75
2024/04/06 04:30:06;;;;;;;2.97;2.15;;;10.90;99.90;;;;;;5073073;28;20096;-75
2024/04/06 04:32:32;;;;;;;2.05;1.75;;;10.80;99.90;;;;;;5073177;28;20029;-75
2024/04/06 04:34:58;;;;;;;5.68;2.55;;;10.90;99.90;;;;;;5072644;28;20028;-74
2024/04/06 04:37:23;;;;;;;6.18;2.83;;;10.80;99.90;;;;;;5064102;28;20043;-75
2024/04/06 04:39:49;;;;;;;7.65;4.20;;;10.80;99.90;;;;;;5072852;28;20457;-74
2024/04/06 04:42:14;;;;;;;9.48;3.25;;;10.90;99.90;;;;;;5072374;28;20070;-75
2024/04/06 04:44:40;;;;;;;3.25;2.95;;;10.90;99.90;;;;;;5072008;28;20029;-74
2024/04/06 04:47:06;;;;;;;5.35;2.75;;;10.90;99.90;;;;;;5072846;28;20085;-74
2024/04/06 04:49:31;;;;;;;3.40;2.33;;;10.90;99.90;;;;;;5072782;28;20035;-74
2024/04/06 04:51:57;;;;;;;5.03;3.42;;;11.30;99.90;;;;;;5063042;28;20112;-74
2024/04/06 04:54:22;;;;;;;5.70;3.35;;;11.40;99.90;;;;;;5064449;28;20108;-73
2024/04/06 04:56:48;;;;;;;7.70;3.45;;;11.40;99.90;;;;;;5070037;28;20051;-73
2024/04/06 04:59:14;;;;;;;17.80;7.13;;;11.30;99.90;;;;;;5071290;28;20058;-73
2024/04/06 05:01:39;;;;;;;12.10;7.18;;;11.20;99.90;;;;;;5070908;28;20536;-74
2024/04/06 05:04:05;;;;;;;6.53;3.90;;;11.20;99.90;;;;;;5071480;28;20024;-75
2024/04/06 05:06:30;;;;;;;7.68;4.25;;;11.20;99.90;;;;;;5066107;28;20017;-74
2024/04/06 05:08:58;;;;;;;5.00;3.80;;;11.30;99.90;;;;;;5068373;28;20032;-75
2024/04/06 05:11:24;;;;;;;7.63;3.72;;;11.30;99.90;;;;;;5067312;28;20036;-76
2024/04/06 05:13:49;;;;;;;8.23;3.45;;;11.30;99.90;;;;;;5071528;28;20035;-75
2024/04/06 05:16:15;;;;;;;8.43;3.83;;;11.40;99.90;;;;;;5072451;28;20044;-74
2024/04/06 05:18:41;;;;;;;3.30;3.00;;;11.40;99.90;;;;;;5072597;28;20403;-74
2024/04/06 05:21:07;;;;;;;5.85;4.38;;;11.40;99.90;;;;;;5071163;28;20031;-75
2024/04/06 05:23:32;;;;;;;4.93;3.10;;;11.50;99.90;;;;;;5071783;28;20031;-75
2024/04/06 05:25:58;;;;;;;4.00;3.20;;;11.60;99.90;;;;;;5071039;28;20021;-74
2024/04/06 05:28:28;;;;;;;6.18;3.25;;;11.70;99.90;;;;;;5070581;28;20074;-75
2024/04/06 05:30:54;;;;;;;7.03;4.20;;;11.80;99.90;;;;;;5071886;28;20118;-74
2024/04/06 05:33:21;;;;;;;9.63;5.53;;;11.90;99.90;;;;;;5070124;28;20483;-73
2024/04/06 05:35:49;;;;;;;7.07;3.35;;;12.00;99.90;;;;;;5071871;28;20021;-74
2024/04/06 05:38:16;;;;;;;6.97;4.35;;;12.20;99.90;;;;;;5070410;28;20028;-74
2024/04/06 05:40:44;;;;;;;4.13;3.08;;;12.20;99.90;;;;;;5071689;28;20051;-74
2024/04/06 05:43:10;;;;;;;5.50;3.38;;;12.20;99.90;;;;;;5069660;28;20028;-74
2024/04/06 05:45:37;;;;;;;6.35;3.35;;;12.20;99.90;;;;;;5070440;28;20055;-74
2024/04/06 05:48:03;;;;;;;4.05;3.30;;;12.40;99.90;;;;;;5070538;28;20435;-74
2024/04/06 05:50:44;;;;;;;7.35;4.78;;;12.40;99.90;;;;;;5068289;28;20074;-74
2024/04/06 05:53:10;;;;;;;11.02;6.05;;;12.50;99.90;;;;;;5069597;28;20032;-72
2024/04/06 05:55:36;;;;;;;7.35;4.90;;;12.60;99.90;;;;;;5069444;28;20078;-73
2024/04/06 05:58:03;;;;;;;7.70;4.18;;;12.60;99.90;;;;;;5069589;28;20064;-73
2024/04/06 06:00:29;;;;;;;5.13;3.67;;;12.60;99.90;;;;;;5069871;28;20028;-74
2024/04/06 06:02:56;;;;;;;7.60;5.75;;;12.70;99.90;;;;;;5065965;28;20021;-74
2024/04/06 06:05:22;;;;;;;5.28;4.22;;;12.80;99.90;;;;;;5069004;28;20031;-74
2024/04/06 06:07:48;;;;;;;8.25;4.82;;;12.90;99.90;;;;;;5071645;28;20056;-74
2024/04/06 06:10:14;;;;;;;10.77;4.78;;;13.00;99.90;;;;;;5071196;28;20020;-73
2024/04/06 06:12:40;;;;;;;6.97;3.45;;;13.00;99.90;;;;;;5051568;28;20033;-73
2024/04/06 06:15:06;;;;;;;8.50;3.80;;;13.10;99.90;;;;;;5051271;28;20033;-73
2024/04/06 06:17:32;;;;;;;5.82;3.53;;;13.20;99.90;;;;;;5069853;28;20025;-75
2024/04/06 06:19:58;;;;;;;5.43;3.42;;;13.30;99.90;;;;;;5071261;28;20016;-73
2024/04/06 06:22:24;;;;;;;8.40;4.20;;;13.40;99.90;;;;;;5071230;28;20024;-75
2024/04/06 06:24:49;;;;;;;7.00;3.55;;;13.50;99.90;;;;;;5070788;28;20494;-73
2024/04/06 06:27:16;;;;;;;3.88;2.95;;;13.70;99.90;;;;;;5071615;28;20550;-73
2024/04/06 06:29:42;;;;;;;2.78;2.47;;;13.80;99.90;;;;;;5071372;28;20027;-73
2024/04/06 06:32:07;;;;;;;6.25;2.83;;;13.90;99.90;;;;;;5071850;28;20029;-73
2024/04/06 06:34:33;;;;;;;7.88;3.42;;;14.00;99.90;;;;;;5071005;28;20029;-73
2024/04/06 06:36:59;;;;;;;6.32;2.95;;;14.00;99.90;;;;;;5071360;28;20028;-73
2024/04/06 06:39:25;;;;;;;5.63;2.58;;;14.10;99.90;;;;;;5071292;28;20529;-73
2024/04/06 06:41:53;;;;;;;6.82;2.95;;;14.20;99.90;;;;;;5071302;28;20032;-73
2024/04/06 06:44:19;;;;;;;5.68;2.58;;;14.30;99.90;;;;;;5071040;28;20200;-73
2024/04/06 06:46:44;;;;;;;3.25;2.80;;;14.50;99.90;;;;;;5071495;28;20475;-73
2024/04/06 06:49:10;;;;;;;7.68;5.88;;;14.60;99.90;;;;;;5071053;28;20372;-73
2024/04/06 06:51:36;;;;;;;4.95;4.10;;;14.80;99.90;;;;;;5071636;28;20108;-73
2024/04/06 06:54:02;;;;;;;4.78;3.53;;;14.90;99.90;;;;;;5070977;28;20032;-74
2024/04/06 06:56:28;;;;;;;9.90;4.20;;;15.10;99.90;;;;;;5071466;28;20025;-74
2024/04/06 06:58:54;;;;;;;4.13;3.70;;;15.20;99.90;;;;;;5071656;28;20033;-74
2024/04/06 07:01:20;;;;;;;8.00;5.00;;;15.20;99.90;;;;;;5070207;28;20029;-74
2024/04/06 07:03:45;;;;;;;6.22;4.60;;;15.30;99.90;;;;;;5070904;28;20028;-74
2024/04/06 07:06:12;;;;;;;7.20;3.85;;;15.40;99.90;;;;;;5072375;28;20016;-74
2024/04/06 07:08:42;;;;;;;4.30;2.53;;;15.60;99.90;;;;;;5073688;28;20127;-74
2024/04/06 07:11:09;;;;;;;8.13;3.38;;;15.60;99.90;;;;;;5074019;28;20021;-74
2024/04/06 07:13:35;;;;;;;8.93;4.10;;;15.70;99.90;;;;;;5074724;28;20502;-74
2024/04/06 07:16:05;;;;;;;6.75;3.40;;;15.80;99.90;;;;;;5075339;28;20441;-74
2024/04/06 07:18:31;;;;;;;5.05;2.60;;;15.90;99.90;;;;;;5073786;28;20056;-74
2024/04/06 07:20:57;;;;;;;3.55;2.25;;;16.00;99.90;;;;;;5074635;28;20398;-74
2024/04/06 07:23:23;;;;;;;6.18;2.40;;;16.10;99.90;;;;;;5074593;28;20020;-74
2024/04/06 07:25:49;;;;;;;17.48;2.80;;;16.20;99.90;;;;;;5075019;28;20433;-74
2024/04/06 07:28:16;;;;;;;3.80;1.70;;;16.40;99.90;;;;;;5069812;28;20020;-74
2024/04/06 07:30:42;;;;;;;5.78;3.03;;;16.40;99.90;;;;;;5076627;28;20017;-73
2024/04/06 07:33:08;;;;;;;3.80;2.20;;;16.50;99.90;;;;;;5087944;28;20008;-72
2024/04/06 07:35:33;;;;;;;4.90;1.50;;;16.70;99.90;;;;;;5095560;28;20048;-73
2024/04/06 07:37:59;;;;;;;5.65;3.67;;;16.90;99.90;;;;;;5095823;28;20009;-72
2024/04/06 07:40:25;;;;;;;2.40;1.77;;;17.10;99.60;;;;;;5086182;28;20044;-72
2024/04/06 07:42:51;;;;;;;3.85;3.10;;;17.30;96.80;;;;;;5072055;28;20483;-75
2024/04/06 07:45:17;;;;;;;5.70;2.08;;;17.30;96.60;;;;;;5071304;28;20024;-73
2024/04/06 07:47:43;;;;;;;4.60;2.97;;;17.50;97.50;;;;;;5073314;28;20040;-75
2024/04/06 07:50:08;;;;;;;2.95;1.80;;;17.60;96.20;;;;;;5072376;28;20032;-74
2024/04/06 07:52:34;;;;;;;12.20;5.60;;;17.80;95.40;;;;;;5073995;28;20029;-75
2024/04/06 07:55:00;;;;;;;5.70;4.03;;;17.90;94.30;;;;;;5074061;28;20016;-76
2024/04/06 07:57:27;;;;;;;5.85;2.35;;;17.90;94.50;;;;;;5075204;28;20025;-77
2024/04/06 07:59:55;;;;;;;3.95;1.98;;;17.90;94.20;;;;;;5075664;28;20036;-77
2024/04/06 08:02:21;;;;;;;3.75;1.40;;;18.00;94.00;;;;;;5075180;28;20036;-77
2024/04/06 08:04:46;;;;;;;3.40;2.30;;;18.00;94.20;;;;;;5073167;28;20131;-76
2024/04/06 08:07:12;;;;;;;4.75;2.60;;;18.00;94.00;;;;;;5075267;28;20108;-77
2024/04/06 08:09:38;;;;;;;3.15;1.83;;;18.00;93.20;;;;;;5075121;28;20366;-77
2024/04/06 08:12:03;;;;;;;4.45;1.92;;;18.00;93.00;;;;;;5075497;28;20078;-77
2024/04/06 08:14:29;;;;;;;3.67;1.70;;;18.00;93.30;;;;;;5075630;28;20540;-77
2024/04/06 08:16:55;;;;;;;6.70;1.90;;;18.30;93.70;;;;;;5070958;28;20020;-76
2024/04/06 08:19:20;;;;;;;2.35;1.42;;;18.50;93.50;;;;;;5075800;28;20513;-77
2024/04/06 08:21:46;;;;;;;1.80;1.58;;;18.70;93.00;;;;;;5076350;28;20017;-77
2024/04/06 08:24:12;;;;;;;3.25;1.83;;;18.70;92.70;;;;;;5075877;28;20024;-76
2024/04/06 08:26:37;;;;;;;2.00;1.40;;;18.80;92.40;;;;;;5074170;28;20437;-76
2024/04/06 08:29:03;;;;;;;2.65;1.42;;;18.90;92.00;;;;;;5072626;28;20031;-75
2024/04/06 08:31:28;;;;;;;3.58;1.50;;;18.80;91.60;;;;;;5073469;28;20099;-76
2024/04/06 08:33:54;;;;;;;5.57;2.08;;;18.90;91.60;;;;;;5074119;28;20647;-77
2024/04/06 08:36:20;;;;;;;5.05;1.75;;;19.00;92.50;;;;;;5068714;28;20028;-78
2024/04/06 08:38:45;;;;;;;7.65;2.58;;;19.00;92.20;;;;;;5077999;28;20120;-77
2024/04/06 08:41:13;;;;;;;4.15;2.72;;;19.20;92.10;;;;;;5079864;28;20028;-77
2024/04/06 08:43:43;;;;;;;5.03;2.67;;;19.40;91.90;;;;;;5076935;28;20020;-77
2024/04/06 08:46:09;;;;;;;3.65;2.00;;;19.40;91.40;;;;;;5079250;28;20024;-77
2024/04/06 08:48:36;;;;;;;6.70;1.63;;;19.50;91.00;;;;;;5080044;28;20513;-78
2024/04/06 08:51:03;;;;;;;5.20;1.35;;;19.50;91.00;;;;;;5078503;28;20024;-76
2024/04/06 08:53:30;;;;;;;3.35;1.08;;;19.60;90.70;;;;;;5077131;28;20032;-77
2024/04/06 08:55:59;;;;;;;3.55;1.35;;;19.70;90.60;;;;;;5078937;28;20028;-77
2024/04/06 08:58:25;;;;;;;2.90;1.60;;;19.80;90.40;;;;;;5077356;28;20028;-77
2024/04/06 09:00:54;;;;;;;2.22;1.08;;;19.90;89.90;;;;;;5078325;28;20419;-77
2024/04/06 09:03:20;;;;;;;2.83;0.82;;;20.10;90.00;;;;;;5070535;28;20026;-77
2024/04/06 09:05:45;;;;;;;2.50;1.15;;;20.20;88.40;;;;;;5077339;28;20037;-77
2024/04/06 09:08:15;;;;;;;1.35;1.23;;;20.40;88.50;;;;;;5077122;28;20031;-77
2024/04/06 09:10:41;;;;;;;3.17;1.40;;;20.50;86.70;;;;;;5072598;28;20486;-77
2024/04/06 09:13:08;;;;;;;2.45;1.50;;;20.60;85.80;;;;;;5072332;28;20020;-76
2024/04/06 09:15:33;;;;;;;2.00;1.38;;;20.60;84.90;;;;;;5067329;28;20040;-74
2024/04/06 09:18:02;;;;;;;3.17;1.50;;;20.80;86.30;;;;;;5073016;28;20039;-75
2024/04/06 09:20:28;;;;;;;1.58;1.05;;;20.80;85.00;;;;;;5072358;28;20027;-75
2024/04/06 09:22:55;;;;;;;2.70;0.95;;;20.90;83.70;;;;;;5072225;28;20017;-77
2024/04/06 09:25:24;;;;;;;7.95;1.20;;;21.00;82.90;;;;;;5072640;28;20024;-77
2024/04/06 09:27:50;;;;;;;4.70;1.23;;;21.00;82.90;;;;;;5071500;28;20027;-75
2024/04/06 09:30:16;;;;;;;2.80;1.30;;;21.10;83.00;;;;;;5067350;28;20391;-77
2024/04/06 09:32:43;;;;;;;1.58;1.00;;;21.30;83.80;;;;;;5071312;28;20021;-76
2024/04/06 09:35:10;;;;;;;1.33;0.93;;;21.40;83.60;;;;;;5068575;28;20028;-77
2024/04/06 09:37:38;;;;;;;1.25;0.90;;;21.40;83.40;;;;;;5072212;28;20021;-77
2024/04/06 09:40:08;;;;;;;1.17;1.08;;;21.50;82.20;;;;;;5072926;28;20077;-76
2024/04/06 09:42:38;;;;;;;6.10;1.23;;;21.50;80.90;;;;;;5072673;28;20024;-76
2024/04/06 09:45:06;;;;;;;2.03;1.23;;;21.50;80.10;;;;;;5079544;28;20414;-76
2024/04/06 09:47:33;;;;;;;3.17;0.90;;;21.60;78.50;;;;;;5083950;28;20084;-75
2024/04/06 09:49:59;;;;;;;1.60;1.50;;;21.50;78.70;;;;;;5082564;28;20078;-75
2024/04/06 09:52:26;;;;;;;2.08;1.33;;;21.60;77.40;;;;;;5082814;28;20033;-77
2024/04/06 09:54:52;;;;;;;1.17;1.05;;;21.60;75.70;;;;;;5076261;28;20482;-78
2024/04/06 09:57:19;;;;;;;1.85;1.58;;;21.90;76.10;;;;;;5076967;28;20628;-77
2024/04/06 09:59:45;;;;;;;1.35;1.05;;;22.20;75.30;;;;;;5076741;28;20029;-77
2024/04/06 10:02:23;;;;;;;1.50;1.17;;;22.40;72.80;;;;;;5074444;28;20024;-77
2024/04/06 10:04:56;;;;;;;1.88;1.38;;;22.50;73.00;;;;;;5054341;28;20017;-77
2024/04/06 10:07:29;;;;;;;2.55;1.65;;;22.50;72.30;;;;;;5062963;28;20031;-77
2024/04/06 10:10:06;;;;;;;2.35;1.20;;;22.60;71.30;;;;;;5072423;28;20025;-77
2024/04/06 10:12:42;;;;;;;2.25;1.35;;;22.70;70.80;;;;;;5073071;28;20024;-77
2024/04/06 10:15:12;;;;;;;1.27;1.17;;;22.70;69.00;;;;;;5071436;28;20024;-77
2024/04/06 10:17:49;;;;;;;1.65;1.08;;;22.90;67.70;;;;;;5070319;28;20159;-77
2024/04/06 10:20:22;;;;;;;1.25;0.82;;;22.90;66.60;;;;;;5073844;28;20024;-77
2024/04/06 10:23:14;;;;;;;1.10;0.70;;;22.90;65.30;;;;;;5070148;28;20024;-76
2024/04/06 10:25:40;;;;;;;0.30;0.30;;;22.90;60.80;;;;;;5066594;28;20028;-77
2024/04/06 10:28:07;;;;;;;0.75;0.63;;;22.80;59.20;;;;;;5071678;28;20522;-77
2024/04/06 10:30:35;;;;;;;1.05;0.70;;;22.80;56.30;;;;;;5071255;28;20486;-76
2024/04/06 10:33:01;;;;;;;0.65;0.65;;;22.80;56.50;;;;;;5068119;28;20031;-76
2024/04/06 10:35:27;;;;;;;3.05;0.90;;;23.00;56.60;;;;;;5071243;28;20103;-76
2024/04/06 10:37:54;;;;;;;2.50;0.57;;;23.00;54.90;;;;;;5066871;28;20028;-77
2024/04/06 10:40:24;;;;;;;1.17;0.50;;;22.90;55.90;;;;;;5067642;28;20029;-76
2024/04/06 10:42:50;;;;;;;0.82;0.57;;;22.70;55.20;;;;;;5073238;28;20455;-76
2024/04/06 10:45:16;;;;;;;2.83;0.60;;;22.60;57.60;;;;;;5075250;28;20154;-76
2024/04/06 10:47:43;;;;;;;5.05;0.70;;;22.70;56.60;;;;;;5074099;28;20055;-77
2024/04/06 10:50:09;;;;;;;1.27;0.65;;;22.90;58.30;;;;;;5075644;28;20033;-76
2024/04/06 10:52:39;;;;;;;2.05;0.70;;;22.90;57.10;;;;;;5074197;28;20522;-76
2024/04/06 10:55:21;;;;;;;1.45;0.82;;;23.00;57.70;;;;;;5075368;28;20048;-77
2024/04/06 10:57:47;;;;;;;1.05;0.90;;;23.20;59.20;;;;;;5075695;28;20074;-76
2024/04/06 11:00:17;;;;;;;1.05;0.95;;;23.30;60.10;;;;;;5075201;28;20023;-76
2024/04/06 11:02:44;;;;;;;2.00;0.77;;;23.40;57.70;;;;;;5073833;28;20044;-76
2024/04/06 11:05:10;;;;;;;1.30;1.15;;;23.40;57.70;;;;;;5078216;28;20052;-75
2024/04/06 11:07:40;;;;;;;1.05;0.77;;;23.30;57.10;;;;;;5074383;28;20031;-77
2024/04/06 11:10:07;;;;;;;1.27;0.70;;;23.40;56.90;;;;;;5076035;28;20050;-77
2024/04/06 11:12:39;;;;;;;1.77;1.00;;;23.40;56.00;;;;;;5074588;28;20562;-77
2024/04/06 11:15:07;;;;;;;1.42;0.50;;;23.50;56.00;;;;;;5074548;28;20017;-76
2024/04/06 11:17:34;;;;;;;0.85;0.73;;;23.50;55.70;;;;;;5073487;28;20415;-76
2024/04/06 11:20:02;;;;;;;3.85;0.80;;;23.60;54.30;;;;;;5073515;28;20028;-75
2024/04/06 11:22:28;;;;;;;2.03;0.65;;;23.70;53.80;;;;;;5073177;28;20440;-77
2024/04/06 11:24:55;;;;;;;3.92;0.73;;;23.80;53.90;;;;;;5072843;28;20024;-76
2024/04/06 11:27:22;;;;;;;6.60;0.93;;;24.00;52.80;;;;;;5074911;28;20020;-78
2024/04/06 11:29:51;;;;;;;3.05;0.85;;;24.10;53.80;;;;;;5073509;28;20028;-75
2024/04/06 11:32:21;;;;;;;2.33;1.05;;;24.10;52.60;;;;;;5073489;28;20056;-77
2024/04/06 11:34:51;;;;;;;1.25;1.15;;;24.20;51.40;;;;;;5074393;28;20487;-77
2024/04/06 11:37:21;;;;;;;1.00;0.60;;;24.40;50.50;;;;;;5072407;28;20417;-75
2024/04/06 11:39:48;;;;;;;0.75;0.65;;;24.50;50.20;;;;;;5071640;28;20031;-77
2024/04/06 11:42:14;;;;;;;0.82;0.68;;;24.60;51.00;;;;;;5073165;28;20032;-76
2024/04/06 11:44:41;;;;;;;2.28;0.82;;;24.70;49.20;;;;;;5072774;28;20495;-76
2024/04/06 11:47:07;;;;;;;0.80;0.77;;;24.60;49.30;;;;;;5072985;28;20025;-76
2024/04/06 11:49:33;;;;;;;1.55;0.70;;;24.60;48.90;;;;;;5073139;28;20021;-78
2024/04/06 11:51:59;;;;;;;1.48;0.93;;;24.60;47.20;;;;;;5071735;28;20510;-77
2024/04/06 11:54:24;;;;;;;1.73;0.90;;;24.70;49.50;;;;;;5071718;28;20436;-76
2024/04/06 11:56:51;;;;;;;6.38;1.80;;;24.80;48.80;;;;;;5074070;28;20100;-76
2024/04/06 11:59:17;;;;;;;1.85;0.88;;;24.70;47.60;;;;;;5074000;28;20033;-76
2024/04/06 12:01:43;;;;;;;1.75;0.90;;;24.70;47.00;;;;;;5072650;28;20398;-76
2024/04/06 12:04:10;;;;;;;0.88;0.82;;;24.80;46.90;;;;;;5072357;28;20024;-77
2024/04/06 12:06:36;;;;;;;1.25;1.20;;;24.80;46.80;;;;;;5079415;28;20033;-76
2024/04/06 12:09:02;;;;;;;1.35;0.80;;;24.90;46.90;;;;;;5084393;28;20031;-77
2024/04/06 12:11:27;;;;;;;0.77;0.63;;;25.00;47.70;;;;;;5077322;28;20166;-76
2024/04/06 12:13:53;;;;;;;0.93;0.50;;;25.10;43.70;;;;;;5076806;28;20090;-76
2024/04/06 12:16:19;;;;;;;1.48;0.70;;;25.30;41.10;;;;;;5072624;28;20485;-77
2024/04/06 12:18:45;;;;;;;2.95;0.65;;;25.40;43.40;;;;;;5073529;28;20110;-76
2024/04/06 12:21:10;;;;;;;0.80;0.80;;;25.50;44.20;;;;;;5073609;28;20109;-76
2024/04/06 12:23:36;;;;;;;3.33;0.60;;;25.60;41.90;;;;;;5073295;28;20108;-76
2024/04/06 12:26:02;;;;;;;2.20;0.60;;;25.60;40.20;;;;;;5073417;28;20044;-77
2024/04/06 12:28:27;;;;;;;3.97;0.80;;;25.70;41.40;;;;;;5075252;28;20016;-77
2024/04/06 12:30:53;;;;;;;3.03;0.90;;;25.70;38.90;;;;;;5074262;28;20029;-77
2024/04/06 12:33:18;;;;;;;0.85;0.47;;;25.70;39.70;;;;;;5075333;28;20036;-77
2024/04/06 12:35:48;;;;;;;1.17;0.50;;;25.80;38.90;;;;;;5071626;28;20507;-76
2024/04/06 12:38:14;;;;;;;0.65;0.50;;;25.80;39.20;;;;;;5056909;28;20025;-77
2024/04/06 12:40:40;;;;;;;0.45;0.40;;;25.80;41.10;;;;;;5071668;28;20046;-76
2024/04/06 12:43:05;;;;;;;0.63;0.63;;;25.90;39.70;;;;;;5071097;28;20024;-76